Погода Мурпаркна неделю

Калифорния, США

01 - 07 сентября
  • 01сентября
    Сегодня
    +15°
    +27°
    Ясно и безоблачно
    ВремяПогодаТемператураВлажностьДавлениеВетер, м/сВероятность осадков
    02:00Ясно и безоблачно+17°C80 %747 мм0.3 м/с2 %
    05:00Ясно и безоблачно+13°C83 %747 мм0.2 м/с2 %
    08:00Ясно и безоблачно+17°C68 %748 мм0.5 м/с2 %
    11:00Ясно и безоблачно+26°C34 %748 мм1.6 м/с2 %
    14:00Ясно и безоблачно+27°C34 %748 мм4.5 м/с2 %
    17:00Ясно и безоблачно+24°C38 %747 мм3.7 м/с2 %
    20:00Ясно и безоблачно+19°C58 %747 мм1.7 м/с2 %
    23:00Ясно и безоблачно+17°C68 %748 мм0.5 м/с2 %
  • 02сентября
    Среда
    +16°
    +28°
    Ясно и безоблачно
    ВремяПогодаТемператураВлажностьДавлениеВетер, м/сВероятность осадков
    02:00Ясно и безоблачно+17°C69 %748 мм1.0 м/с2 %
    05:00Ясно и безоблачно+16°C74 %747 мм1.6 м/с2 %
    08:00Ясно и безоблачно+18°C62 %748 мм1.7 м/с2 %
    11:00Ясно и безоблачно+25°C34 %748 мм1.3 м/с2 %
    14:00Ясно и безоблачно+28°C37 %748 мм4.2 м/с2 %
    17:00Ясно и безоблачно+25°C33 %747 мм4.5 м/с2 %
    20:00Ясно и безоблачно+20°C59 %746 мм1.9 м/с2 %
    23:00Ясно и безоблачно+19°C55 %747 мм1.5 м/с2 %
  • 03сентября
    Четверг
    +16°
    +28°
    Ясно и безоблачно
    ВремяПогодаТемператураВлажностьДавлениеВетер, м/сВероятность осадков
    02:00Ясно и безоблачно+18°C50 %747 мм1.5 м/с2 %
    05:00Ясно и безоблачно+17°C61 %746 мм0.3 м/с2 %
    08:00Ясно и безоблачно+19°C60 %747 мм0.9 м/с2 %
    11:00Ясно и безоблачно+25°C36 %747 мм1.7 м/с2 %
    14:00Ясно и безоблачно+27°C42 %745 мм4.5 м/с2 %
    17:00Ясно и безоблачно+25°C41 %745 мм3.9 м/с2 %
    20:00Ясно и безоблачно+18°C61 %744 мм1.9 м/с2 %
    23:00Ясно и безоблачно+17°C69 %745 мм0.6 м/с2 %
  • 04сентября
    Пятница
    +17°
    +28°
    Ясно и безоблачно
    ВремяПогодаТемператураВлажностьДавлениеВетер, м/сВероятность осадков
    02:00Ясно и безоблачно+18°C70 %745 мм1.4 м/с2 %
    05:00Ясно и безоблачно+17°C86 %745 мм1.6 м/с2 %
    08:00Ясно и безоблачно+19°C75 %746 мм2.1 м/с2 %
    11:00Ясно и безоблачно+25°C39 %747 мм1.0 м/с2 %
    14:00Ясно и безоблачно+28°C42 %746 мм4.7 м/с2 %
    17:00Ясно и безоблачно+25°C43 %745 мм4.2 м/с2 %
    20:00Ясно и безоблачно+19°C59 %745 мм1.5 м/с2 %
    23:00Ясно и безоблачно+19°C63 %746 мм1.1 м/с2 %
  • 05сентября
    Суббота
    +20°
    +31°
    Ясно и безоблачно
    ВремяПогодаТемператураВлажностьДавлениеВетер, м/сВероятность осадков
    02:00Ясно и безоблачно+18°C59 %746 мм1.6 м/с2 %
    05:00Ясно и безоблачно+18°C65 %746 мм2.0 м/с3 %
    08:00Ясно и безоблачно+20°C51 %747 мм1.7 м/с6 %
    11:00Ясно и безоблачно+27°C23 %747 мм1.0 м/с10 %
    14:00Ясно и безоблачно+30°C24 %746 мм4.6 м/с18 %
    17:00Ясно и безоблачно+27°C29 %745 мм4.3 м/с22 %
    20:00Ясно и безоблачно+20°C47 %746 мм1.6 м/с12 %
    23:00Ясно и безоблачно+20°C53 %747 мм0.3 м/с21 %
  • 06сентября
    Воскресенье
    +17°
    +29°
    Ясно и безоблачно
    ВремяПогодаТемператураВлажностьДавлениеВетер, м/сВероятность осадков
    05:00Практически безоблачно+21°C42 %746 мм1.3 м/с29 %
    11:00Ясно и безоблачно+28°C20 %746 мм2.0 м/с35 %
    17:00Ясно и безоблачно+28°C29 %745 мм4.4 м/с36 %
    23:00Ясно и безоблачно+21°C56 %746 мм1.3 м/с26 %
  • 07сентября
    Понедельник
    +17°
    +31°
    Ясно и безоблачно
    ВремяПогодаТемператураВлажностьДавлениеВетер, м/сВероятность осадков
    05:00Ясно и безоблачно+18°C63 %745 мм1.5 м/с22 %
    11:00Ясно и безоблачно+29°C33 %747 мм1.9 м/с24 %
    17:00Ясно и безоблачно+28°C36 %745 мм2.9 м/с27 %
    23:00Ясно и безоблачно+20°C58 %745 мм1.3 м/с18 %
Мы используем cookies
Соглашаюсь